sensor_id;sensor_type;location;lat;lon;timestamp;pressure;altitude;pressure_sealevel;temperature;humidity
6395;BME280;3230;42.588;23.358;2023-09-18T00:00:46;91611.13;;;15.98;100.00
6395;BME280;3230;42.588;23.358;2023-09-18T00:03:15;91610.03;;;15.99;100.00
6395;BME280;3230;42.588;23.358;2023-09-18T00:05:43;91616.63;;;16.16;100.00
6395;BME280;3230;42.588;23.358;2023-09-18T00:08:15;91613.88;;;16.07;100.00
6395;BME280;3230;42.588;23.358;2023-09-18T00:10:42;91605.72;;;16.04;100.00
6395;BME280;3230;42.588;23.358;2023-09-18T00:13:08;91602.63;;;16.02;100.00
6395;BME280;3230;42.588;23.358;2023-09-18T00:15:33;91600.44;;;16.04;100.00
6395;BME280;3230;42.588;23.358;2023-09-18T00:17:58;91595.66;;;16.06;100.00
6395;BME280;3230;42.588;23.358;2023-09-18T00:20:24;91592.50;;;16.04;100.00
6395;BME280;3230;42.588;23.358;2023-09-18T00:22:54;91599.47;;;15.99;100.00
6395;BME280;3230;42.588;23.358;2023-09-18T00:25:20;91600.25;;;16.00;100.00
6395;BME280;3230;42.588;23.358;2023-09-18T00:27:45;91593.59;;;16.03;100.00
6395;BME280;3230;42.588;23.358;2023-09-18T00:30:11;91598.19;;;16.11;100.00
6395;BME280;3230;42.588;23.358;2023-09-18T00:32:37;91601.34;;;16.13;100.00
6395;BME280;3230;42.588;23.358;2023-09-18T00:35:02;91592.22;;;15.91;100.00
6395;BME280;3230;42.588;23.358;2023-09-18T00:37:28;91589.97;;;15.98;100.00
6395;BME280;3230;42.588;23.358;2023-09-18T00:39:54;91594.97;;;16.00;100.00
6395;BME280;3230;42.588;23.358;2023-09-18T00:42:19;91596.13;;;15.94;100.00
6395;BME280;3230;42.588;23.358;2023-09-18T00:44:47;91591.94;;;16.07;100.00
6395;BME280;3230;42.588;23.358;2023-09-18T00:47:14;91597.91;;;15.98;100.00
6395;BME280;3230;42.588;23.358;2023-09-18T00:49:43;91594.75;;;15.96;100.00
6395;BME280;3230;42.588;23.358;2023-09-18T00:52:09;91595.25;;;15.98;100.00
6395;BME280;3230;42.588;23.358;2023-09-18T00:54:37;91603.84;;;15.90;100.00
6395;BME280;3230;42.588;23.358;2023-09-18T00:57:04;91598.66;;;15.85;100.00
6395;BME280;3230;42.588;23.358;2023-09-18T00:59:29;91597.06;;;15.70;100.00
6395;BME280;3230;42.588;23.358;2023-09-18T01:01:56;91594.97;;;15.67;100.00
6395;BME280;3230;42.588;23.358;2023-09-18T01:04:22;91597.63;;;15.67;100.00
6395;BME280;3230;42.588;23.358;2023-09-18T01:06:50;91600.72;;;15.55;100.00
6395;BME280;3230;42.588;23.358;2023-09-18T01:09:19;91609.75;;;15.54;100.00
6395;BME280;3230;42.588;23.358;2023-09-18T01:17:05;91611.78;;;15.24;100.00
6395;BME280;3230;42.588;23.358;2023-09-18T01:22:08;91611.34;;;15.17;100.00
6395;BME280;3230;42.588;23.358;2023-09-18T01:24:35;91611.28;;;15.22;100.00
6395;BME280;3230;42.588;23.358;2023-09-18T01:27:02;91613.13;;;15.41;100.00
6395;BME280;3230;42.588;23.358;2023-09-18T01:29:29;91615.81;;;15.35;100.00
6395;BME280;3230;42.588;23.358;2023-09-18T01:31:55;91610.19;;;15.23;100.00
6395;BME280;3230;42.588;23.358;2023-09-18T01:34:31;91616.31;;;15.38;100.00
6395;BME280;3230;42.588;23.358;2023-09-18T01:36:59;91608.31;;;15.43;100.00
6395;BME280;3230;42.588;23.358;2023-09-18T01:39:27;91611.03;;;15.38;100.00
6395;BME280;3230;42.588;23.358;2023-09-18T01:41:58;91615.34;;;15.33;100.00
6395;BME280;3230;42.588;23.358;2023-09-18T01:44:24;91607.94;;;15.16;100.00
6395;BME280;3230;42.588;23.358;2023-09-18T01:46:50;91612.94;;;15.18;100.00
6395;BME280;3230;42.588;23.358;2023-09-18T01:49:35;91611.97;;;15.28;100.00
6395;BME280;3230;42.588;23.358;2023-09-18T01:52:02;91612.75;;;15.28;100.00
6395;BME280;3230;42.588;23.358;2023-09-18T01:54:29;91614.34;;;15.29;100.00
6395;BME280;3230;42.588;23.358;2023-09-18T01:56:54;91616.13;;;15.34;100.00
6395;BME280;3230;42.588;23.358;2023-09-18T01:59:20;91611.69;;;15.29;100.00
6395;BME280;3230;42.588;23.358;2023-09-18T02:01:46;91613.19;;;15.35;100.00
6395;BME280;3230;42.588;23.358;2023-09-18T02:04:12;91619.25;;;15.36;100.00
6395;BME280;3230;42.588;23.358;2023-09-18T02:06:44;91623.59;;;15.46;100.00
6395;BME280;3230;42.588;23.358;2023-09-18T02:09:10;91618.22;;;15.51;100.00
6395;BME280;3230;42.588;23.358;2023-09-18T02:11:38;91620.50;;;15.58;100.00
6395;BME280;3230;42.588;23.358;2023-09-18T02:14:04;91618.34;;;15.60;100.00
6395;BME280;3230;42.588;23.358;2023-09-18T02:16:32;91628.13;;;15.59;100.00
6395;BME280;3230;42.588;23.358;2023-09-18T02:18:58;91625.41;;;15.64;100.00
6395;BME280;3230;42.588;23.358;2023-09-18T02:21:23;91618.59;;;15.77;100.00
6395;BME280;3230;42.588;23.358;2023-09-18T02:23:53;91616.72;;;15.78;100.00
6395;BME280;3230;42.588;23.358;2023-09-18T02:26:23;91620.38;;;15.82;100.00
6395;BME280;3230;42.588;23.358;2023-09-18T02:28:49;91627.38;;;15.73;100.00
6395;BME280;3230;42.588;23.358;2023-09-18T02:31:15;91619.38;;;15.78;100.00
6395;BME280;3230;42.588;23.358;2023-09-18T02:33:42;91616.41;;;15.65;100.00
6395;BME280;3230;42.588;23.358;2023-09-18T02:36:07;91622.06;;;15.59;100.00
6395;BME280;3230;42.588;23.358;2023-09-18T02:38:33;91621.38;;;15.53;100.00
6395;BME280;3230;42.588;23.358;2023-09-18T02:40:59;91615.47;;;15.42;100.00
6395;BME280;3230;42.588;23.358;2023-09-18T02:43:25;91621.19;;;15.30;100.00
6395;BME280;3230;42.588;23.358;2023-09-18T02:45:51;91610.19;;;15.23;100.00
6395;BME280;3230;42.588;23.358;2023-09-18T02:48:17;91616.72;;;15.31;100.00
6395;BME280;3230;42.588;23.358;2023-09-18T02:50:43;91615.00;;;15.21;100.00
6395;BME280;3230;42.588;23.358;2023-09-18T02:53:21;91626.03;;;15.23;100.00
6395;BME280;3230;42.588;23.358;2023-09-18T02:55:53;91618.63;;;15.25;100.00
6395;BME280;3230;42.588;23.358;2023-09-18T02:58:19;91618.13;;;15.23;100.00
6395;BME280;3230;42.588;23.358;2023-09-18T03:00:46;91624.63;;;15.31;100.00
6395;BME280;3230;42.588;23.358;2023-09-18T03:03:12;91630.56;;;15.23;100.00
6395;BME280;3230;42.588;23.358;2023-09-18T03:05:39;91631.19;;;15.33;100.00
6395;BME280;3230;42.588;23.358;2023-09-18T03:08:05;91628.13;;;15.26;100.00
6395;BME280;3230;42.588;23.358;2023-09-18T03:10:38;91636.25;;;15.30;100.00
6395;BME280;3230;42.588;23.358;2023-09-18T03:13:05;91631.41;;;15.37;100.00
6395;BME280;3230;42.588;23.358;2023-09-18T03:15:31;91631.41;;;15.37;100.00
6395;BME280;3230;42.588;23.358;2023-09-18T03:18:00;91632.75;;;15.34;100.00
6395;BME280;3230;42.588;23.358;2023-09-18T03:20:27;91628.81;;;15.32;100.00
6395;BME280;3230;42.588;23.358;2023-09-18T03:22:55;91628.47;;;15.39;100.00
6395;BME280;3230;42.588;23.358;2023-09-18T03:25:21;91625.31;;;15.37;100.00
6395;BME280;3230;42.588;23.358;2023-09-18T03:27:47;91629.75;;;15.41;100.00
6395;BME280;3230;42.588;23.358;2023-09-18T03:30:13;91626.59;;;15.39;100.00
6395;BME280;3230;42.588;23.358;2023-09-18T03:32:41;91622.41;;;15.38;100.00
6395;BME280;3230;42.588;23.358;2023-09-18T03:35:08;91622.22;;;15.48;100.00
6395;BME280;3230;42.588;23.358;2023-09-18T03:37:41;91620.09;;;15.50;100.00
6395;BME280;3230;42.588;23.358;2023-09-18T03:40:08;91618.88;;;15.43;100.00
6395;BME280;3230;42.588;23.358;2023-09-18T03:42:34;91617.97;;;15.33;100.00
6395;BME280;3230;42.588;23.358;2023-09-18T03:44:59;91616.72;;;15.31;100.00
6395;BME280;3230;42.588;23.358;2023-09-18T03:47:24;91617.66;;;15.21;100.00
6395;BME280;3230;42.588;23.358;2023-09-18T03:49:50;91609.22;;;15.19;100.00
6395;BME280;3230;42.588;23.358;2023-09-18T03:52:16;91608.78;;;15.12;100.00
6395;BME280;3230;42.588;23.358;2023-09-18T03:54:41;91602.94;;;15.15;100.00
6395;BME280;3230;42.588;23.358;2023-09-18T03:57:06;91606.44;;;15.10;100.00
6395;BME280;3230;42.588;23.358;2023-09-18T03:59:32;91602.66;;;15.16;100.00
6395;BME280;3230;42.588;23.358;2023-09-18T04:01:57;91597.81;;;15.05;100.00
6395;BME280;3230;42.588;23.358;2023-09-18T04:04:23;91602.09;;;15.00;100.00
6395;BME280;3230;42.588;23.358;2023-09-18T04:06:48;91598.53;;;14.91;100.00
6395;BME280;3230;42.588;23.358;2023-09-18T04:09:15;91600.88;;;14.93;100.00
6395;BME280;3230;42.588;23.358;2023-09-18T04:11:40;91596.41;;;14.93;100.00
6395;BME280;3230;42.588;23.358;2023-09-18T04:14:05;91594.69;;;14.83;100.00
6395;BME280;3230;42.588;23.358;2023-09-18T04:16:31;91597.88;;;14.80;100.00
6395;BME280;3230;42.588;23.358;2023-09-18T04:19:00;91593.97;;;14.78;100.00
6395;BME280;3230;42.588;23.358;2023-09-18T04:21:26;91604.94;;;14.85;100.00
6395;BME280;3230;42.588;23.358;2023-09-18T04:23:51;91590.75;;;14.81;100.00
6395;BME280;3230;42.588;23.358;2023-09-18T04:26:23;91598.31;;;14.68;100.00
6395;BME280;3230;42.588;23.358;2023-09-18T04:28:48;91596.69;;;14.48;100.00
6395;BME280;3230;42.588;23.358;2023-09-18T04:31:13;91604.19;;;14.60;100.00
6395;BME280;3230;42.588;23.358;2023-09-18T04:33:39;91602.84;;;14.63;100.00
6395;BME280;3230;42.588;23.358;2023-09-18T04:36:05;91597.75;;;14.71;100.00
6395;BME280;3230;42.588;23.358;2023-09-18T04:38:30;91605.97;;;14.65;100.00
6395;BME280;3230;42.588;23.358;2023-09-18T04:40:59;91604.88;;;15.61;100.00
6395;BME280;3230;42.588;23.358;2023-09-18T04:43:25;91614.44;;;16.74;100.00
6395;BME280;3230;42.588;23.358;2023-09-18T04:45:51;91619.06;;;17.87;100.00
6395;BME280;3230;42.588;23.358;2023-09-18T04:48:17;91631.34;;;18.86;96.44
6395;BME280;3230;42.588;23.358;2023-09-18T04:50:43;91629.50;;;19.83;92.58
6395;BME280;3230;42.588;23.358;2023-09-18T04:53:09;91642.78;;;20.09;89.95
6395;BME280;3230;42.588;23.358;2023-09-18T04:55:34;91632.72;;;21.22;86.42
6395;BME280;3230;42.588;23.358;2023-09-18T04:58:00;91638.38;;;22.06;80.37
6395;BME280;3230;42.588;23.358;2023-09-18T05:00:25;91644.81;;;23.12;74.98
6395;BME280;3230;42.588;23.358;2023-09-18T05:02:51;91639.47;;;23.78;68.32
6395;BME280;3230;42.588;23.358;2023-09-18T05:05:17;91641.88;;;25.04;58.66
6395;BME280;3230;42.588;23.358;2023-09-18T05:07:43;91632.09;;;24.76;59.93
6395;BME280;3230;42.588;23.358;2023-09-18T05:10:09;91627.81;;;24.91;61.62
6395;BME280;3230;42.588;23.358;2023-09-18T05:12:35;91632.66;;;24.85;60.66
6395;BME280;3230;42.588;23.358;2023-09-18T05:15:00;91631.09;;;25.16;59.98
6395;BME280;3230;42.588;23.358;2023-09-18T05:17:43;91626.44;;;25.33;58.73
6395;BME280;3230;42.588;23.358;2023-09-18T05:20:11;91637.72;;;26.60;53.91
6395;BME280;3230;42.588;23.358;2023-09-18T05:22:44;91641.16;;;27.30;50.49
6395;BME280;3230;42.588;23.358;2023-09-18T05:25:11;91638.22;;;26.89;51.51
6395;BME280;3230;42.588;23.358;2023-09-18T05:27:37;91624.56;;;26.08;54.54
6395;BME280;3230;42.588;23.358;2023-09-18T05:30:19;91642.91;;;26.92;50.86
6395;BME280;3230;42.588;23.358;2023-09-18T05:32:48;91640.03;;;27.31;50.20
6395;BME280;3230;42.588;23.358;2023-09-18T05:35:14;91637.91;;;28.73;45.03
6395;BME280;3230;42.588;23.358;2023-09-18T05:37:41;91617.47;;;28.34;45.44
6395;BME280;3230;42.588;23.358;2023-09-18T05:40:08;91632.00;;;27.35;47.81
6395;BME280;3230;42.588;23.358;2023-09-18T05:42:35;91625.25;;;28.05;47.30
6395;BME280;3230;42.588;23.358;2023-09-18T05:45:02;91631.78;;;28.80;44.79
6395;BME280;3230;42.588;23.358;2023-09-18T05:47:30;91633.47;;;29.51;43.85
6395;BME280;3230;42.588;23.358;2023-09-18T05:49:57;91622.09;;;29.27;44.47
6395;BME280;3230;42.588;23.358;2023-09-18T05:52:22;91615.44;;;28.65;44.48
6395;BME280;3230;42.588;23.358;2023-09-18T05:54:49;91628.31;;;29.31;43.23
6395;BME280;3230;42.588;23.358;2023-09-18T05:57:14;91637.13;;;29.88;41.82
6395;BME280;3230;42.588;23.358;2023-09-18T05:59:40;91639.59;;;30.18;41.03
6395;BME280;3230;42.588;23.358;2023-09-18T06:02:09;91639.38;;;29.78;42.26
6395;BME280;3230;42.588;23.358;2023-09-18T06:04:34;91643.41;;;29.40;42.42
6395;BME280;3230;42.588;23.358;2023-09-18T06:07:03;91635.84;;;30.66;38.91
6395;BME280;3230;42.588;23.358;2023-09-18T06:09:28;91637.00;;;30.61;39.13
6395;BME280;3230;42.588;23.358;2023-09-18T06:11:54;91629.53;;;30.15;40.62
6395;BME280;3230;42.588;23.358;2023-09-18T06:14:19;91639.97;;;30.20;40.96
6395;BME280;3230;42.588;23.358;2023-09-18T06:16:45;91651.34;;;31.38;37.82
6395;BME280;3230;42.588;23.358;2023-09-18T06:19:10;91638.97;;;30.72;38.99
6395;BME280;3230;42.588;23.358;2023-09-18T06:21:35;91648.66;;;31.31;38.79
6395;BME280;3230;42.588;23.358;2023-09-18T06:24:01;91640.31;;;30.08;39.80
6395;BME280;3230;42.588;23.358;2023-09-18T06:26:26;91641.53;;;30.28;39.94
6395;BME280;3230;42.588;23.358;2023-09-18T06:28:53;91635.69;;;30.05;39.61
6395;BME280;3230;42.588;23.358;2023-09-18T06:31:20;91646.25;;;30.57;39.75
6395;BME280;3230;42.588;23.358;2023-09-18T06:33:45;91646.75;;;31.20;38.86
6395;BME280;3230;42.588;23.358;2023-09-18T06:36:11;91640.13;;;31.65;37.57
6395;BME280;3230;42.588;23.358;2023-09-18T06:38:36;91640.94;;;31.25;38.24
6395;BME280;3230;42.588;23.358;2023-09-18T06:41:02;91635.78;;;30.44;40.34
6395;BME280;3230;42.588;23.358;2023-09-18T06:43:28;91642.59;;;32.37;36.52
6395;BME280;3230;42.588;23.358;2023-09-18T06:45:53;91650.78;;;32.22;36.38
6395;BME280;3230;42.588;23.358;2023-09-18T06:48:19;91651.69;;;31.83;37.04
6395;BME280;3230;42.588;23.358;2023-09-18T06:50:45;91646.66;;;32.74;35.93
6395;BME280;3230;42.588;23.358;2023-09-18T06:53:10;91644.81;;;32.53;35.70
6395;BME280;3230;42.588;23.358;2023-09-18T06:55:36;91638.47;;;32.85;34.89
6395;BME280;3230;42.588;23.358;2023-09-18T06:58:02;91640.03;;;33.35;33.94
6395;BME280;3230;42.588;23.358;2023-09-18T07:00:27;91642.28;;;32.20;36.06
6395;BME280;3230;42.588;23.358;2023-09-18T07:02:53;91644.53;;;33.94;33.57
6395;BME280;3230;42.588;23.358;2023-09-18T07:05:18;91640.56;;;33.15;34.69
6395;BME280;3230;42.588;23.358;2023-09-18T07:07:44;91645.13;;;32.69;34.87
6395;BME280;3230;42.588;23.358;2023-09-18T07:10:09;91639.06;;;33.07;35.16
6395;BME280;3230;42.588;23.358;2023-09-18T07:12:35;91648.78;;;33.54;33.97
6395;BME280;3230;42.588;23.358;2023-09-18T07:15:04;91643.34;;;33.54;34.53
6395;BME280;3230;42.588;23.358;2023-09-18T07:17:30;91652.97;;;34.38;32.34
6395;BME280;3230;42.588;23.358;2023-09-18T07:19:56;91651.25;;;34.52;32.26
6395;BME280;3230;42.588;23.358;2023-09-18T07:22:21;91652.84;;;34.15;32.40
6395;BME280;3230;42.588;23.358;2023-09-18T07:24:46;91648.34;;;33.13;33.86
6395;BME280;3230;42.588;23.358;2023-09-18T07:27:12;91645.91;;;33.30;34.37
6395;BME280;3230;42.588;23.358;2023-09-18T07:29:38;91646.75;;;33.16;33.21
6395;BME280;3230;42.588;23.358;2023-09-18T07:32:04;91654.97;;;32.38;35.23
6395;BME280;3230;42.588;23.358;2023-09-18T07:34:29;91658.72;;;32.62;35.09
6395;BME280;3230;42.588;23.358;2023-09-18T07:36:55;91660.38;;;32.42;35.10
6395;BME280;3230;42.588;23.358;2023-09-18T07:39:22;91655.84;;;32.13;35.93
6395;BME280;3230;42.588;23.358;2023-09-18T07:41:47;91659.69;;;32.30;34.19
6395;BME280;3230;42.588;23.358;2023-09-18T07:44:20;91654.59;;;32.36;34.71
6395;BME280;3230;42.588;23.358;2023-09-18T07:46:46;91653.41;;;33.99;31.61
6395;BME280;3230;42.588;23.358;2023-09-18T07:49:11;91651.63;;;34.50;31.47
6395;BME280;3230;42.588;23.358;2023-09-18T07:51:37;91654.16;;;33.61;31.51
6395;BME280;3230;42.588;23.358;2023-09-18T07:54:03;91651.19;;;34.21;31.48
6395;BME280;3230;42.588;23.358;2023-09-18T07:56:28;91655.47;;;33.87;31.84
6395;BME280;3230;42.588;23.358;2023-09-18T07:58:56;91649.44;;;33.20;33.66
6395;BME280;3230;42.588;23.358;2023-09-18T08:01:21;91655.03;;;33.92;31.61
6395;BME280;3230;42.588;23.358;2023-09-18T08:03:48;91645.75;;;33.44;32.98
6395;BME280;3230;42.588;23.358;2023-09-18T08:06:14;91653.50;;;34.57;31.39
6395;BME280;3230;42.588;23.358;2023-09-18T08:08:44;91658.13;;;34.60;30.31
6395;BME280;3230;42.588;23.358;2023-09-18T08:11:10;91656.31;;;34.77;30.90
6395;BME280;3230;42.588;23.358;2023-09-18T08:13:36;91646.34;;;34.39;30.69
6395;BME280;3230;42.588;23.358;2023-09-18T08:16:03;91649.56;;;33.01;33.78
6395;BME280;3230;42.588;23.358;2023-09-18T08:18:29;91654.28;;;32.12;34.74
6395;BME280;3230;42.588;23.358;2023-09-18T08:20:55;91655.66;;;33.66;31.50
6395;BME280;3230;42.588;23.358;2023-09-18T08:23:23;91642.06;;;33.24;32.44
6395;BME280;3230;42.588;23.358;2023-09-18T08:25:48;91648.63;;;32.66;33.63
6395;BME280;3230;42.588;23.358;2023-09-18T08:28:16;91655.69;;;32.49;33.04
6395;BME280;3230;42.588;23.358;2023-09-18T08:30:42;91646.59;;;32.89;32.03
6395;BME280;3230;42.588;23.358;2023-09-18T08:33:13;91642.38;;;32.73;32.89
6395;BME280;3230;42.588;23.358;2023-09-18T08:35:38;91642.63;;;33.50;32.81
6395;BME280;3230;42.588;23.358;2023-09-18T08:38:04;91637.81;;;32.63;33.67
6395;BME280;3230;42.588;23.358;2023-09-18T08:40:30;91638.94;;;33.25;33.14
6395;BME280;3230;42.588;23.358;2023-09-18T08:42:56;91629.22;;;32.75;32.92
6395;BME280;3230;42.588;23.358;2023-09-18T08:45:55;91637.28;;;32.08;34.98
6395;BME280;3230;42.588;23.358;2023-09-18T08:48:20;91624.28;;;31.38;36.56
6395;BME280;3230;42.588;23.358;2023-09-18T08:50:47;91621.94;;;31.54;34.61
6395;BME280;3230;42.588;23.358;2023-09-18T08:53:13;91624.28;;;31.27;36.50
6395;BME280;3230;42.588;23.358;2023-09-18T08:55:38;91615.22;;;30.04;37.75
6395;BME280;3230;42.588;23.358;2023-09-18T08:58:08;91612.97;;;28.87;40.27
6395;BME280;3230;42.588;23.358;2023-09-18T09:00:37;91610.28;;;27.47;43.22
6395;BME280;3230;42.588;23.358;2023-09-18T09:03:03;91606.94;;;26.77;45.42
6395;BME280;3230;42.588;23.358;2023-09-18T09:05:30;91611.91;;;26.75;43.74
6395;BME280;3230;42.588;23.358;2023-09-18T09:07:56;91605.47;;;25.94;45.69
6395;BME280;3230;42.588;23.358;2023-09-18T09:10:22;91604.63;;;24.99;47.24
6395;BME280;3230;42.588;23.358;2023-09-18T09:15:24;91608.63;;;24.41;51.89
6395;BME280;3230;42.588;23.358;2023-09-18T09:17:52;91609.66;;;24.20;51.21
6395;BME280;3230;42.588;23.358;2023-09-18T09:20:26;91612.31;;;24.20;53.26
6395;BME280;3230;42.588;23.358;2023-09-18T09:22:51;91604.88;;;24.30;50.16
6395;BME280;3230;42.588;23.358;2023-09-18T09:25:25;91610.25;;;24.30;51.74
6395;BME280;3230;42.588;23.358;2023-09-18T09:27:52;91606.94;;;24.04;51.08
6395;BME280;3230;42.588;23.358;2023-09-18T09:30:20;91607.72;;;24.21;52.38
6395;BME280;3230;42.588;23.358;2023-09-18T09:32:50;91600.69;;;24.61;50.77
6395;BME280;3230;42.588;23.358;2023-09-18T09:35:36;91607.31;;;24.35;50.62
6395;BME280;3230;42.588;23.358;2023-09-18T09:38:11;91599.50;;;23.98;49.88
6395;BME280;3230;42.588;23.358;2023-09-18T09:40:39;91594.63;;;23.87;51.45
6395;BME280;3230;42.588;23.358;2023-09-18T09:43:13;91596.84;;;23.85;50.91
6395;BME280;3230;42.588;23.358;2023-09-18T09:45:41;91599.13;;;23.71;52.75
6395;BME280;3230;42.588;23.358;2023-09-18T09:48:07;91594.22;;;23.73;55.15
6395;BME280;3230;42.588;23.358;2023-09-18T09:50:35;91591.16;;;23.58;55.32
6395;BME280;3230;42.588;23.358;2023-09-18T09:53:11;91596.50;;;23.58;56.67
6395;BME280;3230;42.588;23.358;2023-09-18T09:55:37;91595.59;;;23.67;56.62
6395;BME280;3230;42.588;23.358;2023-09-18T09:58:05;91583.03;;;23.26;55.88
6395;BME280;3230;42.588;23.358;2023-09-18T10:00:37;91585.41;;;23.72;56.86
6395;BME280;3230;42.588;23.358;2023-09-18T10:03:12;91582.16;;;23.79;52.39
6395;BME280;3230;42.588;23.358;2023-09-18T10:05:40;91587.78;;;24.18;50.63
6395;BME280;3230;42.588;23.358;2023-09-18T10:08:08;91580.97;;;24.21;51.39
6395;BME280;3230;42.588;23.358;2023-09-18T10:10:38;91586.00;;;24.22;52.62
6395;BME280;3230;42.588;23.358;2023-09-18T10:13:10;91582.81;;;23.88;52.70
6395;BME280;3230;42.588;23.358;2023-09-18T10:15:38;91585.09;;;24.02;52.71
6395;BME280;3230;42.588;23.358;2023-09-18T10:18:15;91587.25;;;24.13;50.69
6395;BME280;3230;42.588;23.358;2023-09-18T10:20:44;91589.69;;;24.34;50.52
6395;BME280;3230;42.588;23.358;2023-09-18T10:23:34;91589.59;;;24.62;47.96
6395;BME280;3230;42.588;23.358;2023-09-18T10:26:04;91584.25;;;24.62;49.98
6395;BME280;3230;42.588;23.358;2023-09-18T10:28:31;91583.31;;;24.54;49.46
6395;BME280;3230;42.588;23.358;2023-09-18T10:30:58;91574.31;;;24.63;49.28
6395;BME280;3230;42.588;23.358;2023-09-18T10:33:26;91574.56;;;24.89;48.99
6395;BME280;3230;42.588;23.358;2023-09-18T10:35:53;91566.13;;;24.39;47.55
6395;BME280;3230;42.588;23.358;2023-09-18T10:38:19;91566.53;;;24.73;49.93
6395;BME280;3230;42.588;23.358;2023-09-18T10:40:47;91560.41;;;24.41;48.73
6395;BME280;3230;42.588;23.358;2023-09-18T10:43:15;91564.28;;;24.59;48.85
6395;BME280;3230;42.588;23.358;2023-09-18T10:45:41;91564.75;;;24.46;50.20
6395;BME280;3230;42.588;23.358;2023-09-18T10:48:07;91549.44;;;24.14;50.66
6395;BME280;3230;42.588;23.358;2023-09-18T10:50:42;91552.69;;;23.63;53.70
6395;BME280;3230;42.588;23.358;2023-09-18T10:53:08;91549.78;;;23.40;53.94
6395;BME280;3230;42.588;23.358;2023-09-18T10:55:34;91540.66;;;23.41;56.50
6395;BME280;3230;42.588;23.358;2023-09-18T10:58:00;91543.59;;;23.23;55.49
6395;BME280;3230;42.588;23.358;2023-09-18T11:00:27;91543.03;;;23.18;57.50
6395;BME280;3230;42.588;23.358;2023-09-18T11:02:56;91537.03;;;23.08;58.37
6395;BME280;3230;42.588;23.358;2023-09-18T11:05:35;91533.44;;;23.57;55.56
6395;BME280;3230;42.588;23.358;2023-09-18T11:08:35;91538.38;;;24.00;52.46
6395;BME280;3230;42.588;23.358;2023-09-18T11:11:09;91532.53;;;24.42;52.30
6395;BME280;3230;42.588;23.358;2023-09-18T11:13:45;91529.91;;;24.30;50.91
6395;BME280;3230;42.588;23.358;2023-09-18T11:16:18;91533.91;;;24.36;50.65
6395;BME280;3230;42.588;23.358;2023-09-18T11:19:04;91535.38;;;24.49;50.71
6395;BME280;3230;42.588;23.358;2023-09-18T11:21:32;91529.00;;;24.89;49.49
6395;BME280;3230;42.588;23.358;2023-09-18T11:24:15;91533.91;;;24.36;50.43
6395;BME280;3230;42.588;23.358;2023-09-18T11:26:45;91530.06;;;24.37;50.29
6395;BME280;3230;42.588;23.358;2023-09-18T11:29:13;91525.66;;;23.97;52.54
6395;BME280;3230;42.588;23.358;2023-09-18T11:31:55;91530.22;;;23.80;53.24
6395;BME280;3230;42.588;23.358;2023-09-18T11:34:27;91524.84;;;23.64;54.36
6395;BME280;3230;42.588;23.358;2023-09-18T11:37:20;91517.22;;;23.66;52.36
6395;BME280;3230;42.588;23.358;2023-09-18T11:39:46;91518.03;;;23.67;54.40
6395;BME280;3230;42.588;23.358;2023-09-18T11:42:17;91514.47;;;23.62;54.18
6395;BME280;3230;42.588;23.358;2023-09-18T11:44:44;91506.53;;;23.94;51.71
6395;BME280;3230;42.588;23.358;2023-09-18T11:47:14;91504.09;;;24.21;53.22
6395;BME280;3230;42.588;23.358;2023-09-18T11:49:49;91504.22;;;24.61;51.00
6395;BME280;3230;42.588;23.358;2023-09-18T11:52:18;91504.16;;;24.73;48.46
6395;BME280;3230;42.588;23.358;2023-09-18T11:54:45;91502.31;;;24.77;47.05
6395;BME280;3230;42.588;23.358;2023-09-18T11:57:15;91498.34;;;25.06;47.36
6395;BME280;3230;42.588;23.358;2023-09-18T11:59:41;91498.81;;;25.12;47.05
6395;BME280;3230;42.588;23.358;2023-09-18T12:02:27;91497.00;;;25.36;47.49
6395;BME280;3230;42.588;23.358;2023-09-18T12:04:56;91490.25;;;25.22;48.57
6395;BME280;3230;42.588;23.358;2023-09-18T12:07:22;91489.88;;;25.24;46.35
6395;BME280;3230;42.588;23.358;2023-09-18T12:09:49;91494.41;;;24.84;48.80
6395;BME280;3230;42.588;23.358;2023-09-18T12:12:16;91501.91;;;24.75;48.82
6395;BME280;3230;42.588;23.358;2023-09-18T12:14:43;91493.78;;;24.55;49.71
6395;BME280;3230;42.588;23.358;2023-09-18T12:17:14;91498.06;;;24.60;49.91
6395;BME280;3230;42.588;23.358;2023-09-18T12:19:53;91496.53;;;24.75;48.55
6395;BME280;3230;42.588;23.358;2023-09-18T12:22:29;91497.38;;;24.79;48.21
6395;BME280;3230;42.588;23.358;2023-09-18T12:25:14;91477.88;;;24.98;46.32
6395;BME280;3230;42.588;23.358;2023-09-18T12:27:41;91480.50;;;25.14;46.83
6395;BME280;3230;42.588;23.358;2023-09-18T12:30:07;91479.00;;;25.36;46.56
6395;BME280;3230;42.588;23.358;2023-09-18T12:32:36;91478.97;;;25.76;46.21
6395;BME280;3230;42.588;23.358;2023-09-18T12:35:02;91480.13;;;25.35;45.95
6395;BME280;3230;42.588;23.358;2023-09-18T12:37:32;91492.00;;;25.74;45.57
6395;BME280;3230;42.588;23.358;2023-09-18T12:39:57;91479.94;;;25.64;45.84
6395;BME280;3230;42.588;23.358;2023-09-18T12:42:23;91489.66;;;25.52;45.00
6395;BME280;3230;42.588;23.358;2023-09-18T12:44:49;91468.63;;;24.96;49.92
6395;BME280;3230;42.588;23.358;2023-09-18T12:47:23;91480.44;;;24.39;51.80
6395;BME280;3230;42.588;23.358;2023-09-18T12:49:50;91478.59;;;24.43;53.45
6395;BME280;3230;42.588;23.358;2023-09-18T12:52:21;91474.13;;;24.00;55.22
6395;BME280;3230;42.588;23.358;2023-09-18T12:54:47;91474.91;;;23.40;57.95
6395;BME280;3230;42.588;23.358;2023-09-18T12:57:19;91471.44;;;23.11;59.98
6395;BME280;3230;42.588;23.358;2023-09-18T12:59:45;91474.69;;;23.04;61.47
6395;BME280;3230;42.588;23.358;2023-09-18T13:02:17;91466.91;;;22.99;60.76
6395;BME280;3230;42.588;23.358;2023-09-18T13:04:51;91461.50;;;22.83;62.38
6395;BME280;3230;42.588;23.358;2023-09-18T13:07:16;91465.38;;;22.86;62.48
6395;BME280;3230;42.588;23.358;2023-09-18T13:09:42;91477.28;;;22.88;62.67
6395;BME280;3230;42.588;23.358;2023-09-18T13:12:09;91467.16;;;22.94;62.98
6395;BME280;3230;42.588;23.358;2023-09-18T13:14:57;91468.13;;;23.02;60.60
6395;BME280;3230;42.588;23.358;2023-09-18T13:17:42;91471.47;;;22.98;62.75
6395;BME280;3230;42.588;23.358;2023-09-18T13:20:15;91453.22;;;23.00;63.59
6395;BME280;3230;42.588;23.358;2023-09-18T13:22:41;91469.06;;;22.93;62.07